1874 NOT_NAMED (1874042S13080)


IBTrACS version v04r00. Visit IBTrACS website for data access.
Please direct all questions to the IBTrACS Q and A forum

Storm track - Intensity - Wind Radii - Intensity Data - Source Data - All data

Summary Information

Storm ID 1874042S13080
Start Feb 11 06Z
End Feb 17 06Z
ATCF IDs
Track status Best track data.

Storm track plot

Map of storm track

Intensity plots

No Intensity information for this storm


Radial wind information

No radial wind information for this storm


Position and Intensity Table

BASIN ISO_TIME_________ NATURE LAT LON
degrees north degrees east
SI 1874-02-11 06:00:00 NR -12.60 79.50
SI 09:00:00 NR -12.74 79.23
SI 12:00:00 NR -12.88 78.97
SI 15:00:00 NR -13.02 78.70
SI 18:00:00 NR -13.16 78.45
SI 21:00:00 NR -13.30 78.20
SI 1874-02-12 00:00:00 NR -13.44 77.95
SI 03:00:00 NR -13.57 77.72
SI 06:00:00 NR -13.70 77.50
SI 09:00:00 NR -13.83 77.29
SI 12:00:00 NR -13.96 77.10
SI 15:00:00 NR -14.09 76.91
SI 18:00:00 NR -14.22 76.73
SI 21:00:00 NR -14.37 76.55
SI 1874-02-13 00:00:00 NR -14.53 76.37
SI 03:00:00 NR -14.71 76.19
SI 06:00:00 NR -14.90 76.00
SI 09:00:00 NR -15.10 75.76
SI 12:00:00 NR -15.32 75.51
SI 15:00:00 NR -15.56 75.25
SI 18:00:00 NR -15.81 75.01
SI 21:00:00 NR -16.08 74.78
SI 1874-02-14 00:00:00 NR -16.37 74.58
SI 03:00:00 NR -16.67 74.42
SI 06:00:00 NR -17.00 74.30
SI 09:00:00 NR -17.35 74.21
SI 12:00:00 NR -17.72 74.16
SI 15:00:00 NR -18.11 74.14
SI 18:00:00 NR -18.51 74.17
SI 21:00:00 NR -18.91 74.24
SI 1874-02-15 00:00:00 NR -19.32 74.35
SI 03:00:00 NR -19.72 74.50
SI 06:00:00 NR -20.10 74.70
SI 09:00:00 NR -20.48 74.95
SI 12:00:00 NR -20.86 75.25
SI 15:00:00 NR -21.23 75.59
SI 18:00:00 NR -21.58 75.96
SI 21:00:00 NR -21.90 76.34
SI 1874-02-16 00:00:00 NR -22.20 76.71
SI 03:00:00 NR -22.47 77.07
SI 06:00:00 NR -22.70 77.40
SI 09:00:00 NR -22.89 77.69
SI 12:00:00 NR -23.04 77.93
SI 15:00:00 NR -23.17 78.15
SI 18:00:00 NR -23.26 78.33
SI 21:00:00 NR -23.34 78.49
SI 1874-02-17 00:00:00 NR -23.40 78.64
SI 03:00:00 NR -23.45 78.77
SI 06:00:00 NR -23.50 78.90

Source Information

Agency Information
USA
TOKYO
CMA
HKO
NEWDELHI
REUNION WMO-Best-Tracks.txt:Line=1030:xxxx874150
BOM
NADI
WELLINGTON
DS824
TD9636
TD9635
NEUMANN
MLC

All available IBTrACS Data

SEASON BASIN SUBBASIN ISO_TIME_________ NATURE LAT LON WMO AGENCY DIST2LAND LANDFALL IFLAG USA SSHS REUNION LAT REUNION LON REUNION TYPE REUNION TNUM STORM SPEED STORM DIR
Year degrees north degrees east km km 1 degrees north degrees east 1 kts degrees
1874 SI MM 1874-02-11 06:00:00 NR -12.60 79.50 reunion 2076 2076 _____O________ -1 -12.60 79.50 99 9.90 6 241
1874 SI MM 09:00:00 NR -12.74 79.23 2089 2089 _____P________ -1 -12.74 79.23 99 6 241
1874 SI MM 12:00:00 NR -12.88 78.97 2113 2113 _____P________ -1 -12.88 78.97 99 6 241
1874 SI MM 15:00:00 NR -13.02 78.70 2127 2127 _____P________ -1 -13.02 78.70 99 6 241
1874 SI MM 18:00:00 NR -13.16 78.45 2153 2153 _____P________ -1 -13.16 78.45 99 6 241
1874 SI MM 21:00:00 NR -13.30 78.20 2167 2167 _____P________ -1 -13.30 78.20 99 6 240
1874 SI MM 1874-02-12 00:00:00 NR -13.44 77.95 2181 2181 _____P________ -1 -13.44 77.95 99 5 240
1874 SI MM 03:00:00 NR -13.57 77.72 2208 2208 _____P________ -1 -13.57 77.72 99 5 239
1874 SI MM 06:00:00 NR -13.70 77.50 reunion 2219 2195 _____O________ -1 -13.70 77.50 99 9.90 5 238
1874 SI MM 09:00:00 NR -13.83 77.29 2195 2170 _____P________ -1 -13.83 77.29 99 5 237
1874 SI MM 12:00:00 NR -13.96 77.10 2166 2142 _____P________ -1 -13.96 77.10 99 5 235
1874 SI MM 15:00:00 NR -14.09 76.91 2142 2118 _____P________ -1 -14.09 76.91 99 4 233
1874 SI MM 18:00:00 NR -14.22 76.73 2118 2100 _____P________ -1 -14.22 76.73 99 5 231
1874 SI MM 21:00:00 NR -14.37 76.55 2090 2076 _____P________ -1 -14.37 76.55 99 5 229
1874 SI MM 1874-02-13 00:00:00 NR -14.53 76.37 2076 2048 _____P________ -1 -14.53 76.37 99 5 226
1874 SI MM 03:00:00 NR -14.71 76.19 2048 2020 _____P________ -1 -14.71 76.19 99 5 224
1874 SI MM 06:00:00 NR -14.90 76.00 reunion 2020 1992 _____O________ -1 -14.90 76.00 99 9.90 6 226
1874 SI MM 09:00:00 NR -15.10 75.76 1992 1954 _____P________ -1 -15.10 75.76 99 6 229
1874 SI MM 12:00:00 NR -15.32 75.51 1954 1926 _____P________ -1 -15.32 75.51 99 7 227
1874 SI MM 15:00:00 NR -15.56 75.25 1923 1885 _____P________ -1 -15.56 75.25 99 7 224
1874 SI MM 18:00:00 NR -15.81 75.01 1885 1855 _____P________ -1 -15.81 75.01 99 7 221
1874 SI MM 21:00:00 NR -16.08 74.78 1855 1825 _____P________ -1 -16.08 74.78 99 7 216
1874 SI MM 1874-02-14 00:00:00 NR -16.37 74.58 1825 1795 _____P________ -1 -16.37 74.58 99 7 210
1874 SI MM 03:00:00 NR -16.67 74.42 1795 1776 _____P________ -1 -16.67 74.42 99 7 203
1874 SI MM 06:00:00 NR -17.00 74.30 reunion 1776 1757 _____O________ -1 -17.00 74.30 99 9.90 7 197
1874 SI MM 09:00:00 NR -17.35 74.21 1757 1747 _____P________ -1 -17.35 74.21 99 7 191
1874 SI MM 12:00:00 NR -17.72 74.16 1747 1728 _____P________ -1 -17.72 74.16 99 8 184
1874 SI MM 15:00:00 NR -18.11 74.14 1728 1724 _____P________ -1 -18.11 74.14 99 8 0
1874 SI MM 18:00:00 NR -18.51 74.17 1731 1724 _____P________ -1 -18.51 74.17 99 8 174
1874 SI MM 21:00:00 NR -18.91 74.24 1724 1724 _____P________ -1 -18.91 74.24 99 8 168
1874 SI MM 1874-02-15 00:00:00 NR -19.32 74.35 1739 1735 _____P________ -1 -19.32 74.35 99 8 163
1874 SI MM 03:00:00 NR -19.72 74.50 1745 1744 _____P________ -1 -19.72 74.50 99 9 157
1874 SI MM 06:00:00 NR -20.10 74.70 reunion 1762 1762 _____O________ -1 -20.10 74.70 99 9.90 9 151
1874 SI MM 09:00:00 NR -20.48 74.95 1791 1791 _____P________ -1 -20.48 74.95 99 9 146
1874 SI MM 12:00:00 NR -20.86 75.25 1821 1821 _____P________ -1 -20.86 75.25 99 10 141
1874 SI MM 15:00:00 NR -21.23 75.59 1852 1852 _____P________ -1 -21.23 75.59 99 10 137
1874 SI MM 18:00:00 NR -21.58 75.96 1894 1894 _____P________ -1 -21.58 75.96 99 10 134
1874 SI MM 21:00:00 NR -21.90 76.34 1925 1925 _____P________ -1 -21.90 76.34 99 9 132
1874 SI MM 1874-02-16 00:00:00 NR -22.20 76.71 1968 1968 _____P________ -1 -22.20 76.71 99 9 130
1874 SI MM 03:00:00 NR -22.47 77.07 2011 2011 _____P________ -1 -22.47 77.07 99 8 128
1874 SI MM 06:00:00 NR -22.70 77.40 reunion 2043 2043 _____O________ -1 -22.70 77.40 99 9.90 7 127
1874 SI MM 09:00:00 NR -22.89 77.69 2075 2075 _____P________ -1 -22.89 77.69 99 6 125
1874 SI MM 12:00:00 NR -23.04 77.93 2096 2096 _____P________ -1 -23.04 77.93 99 5 123
1874 SI MM 15:00:00 NR -23.17 78.15 2119 2119 _____P________ -1 -23.17 78.15 99 4 121
1874 SI MM 18:00:00 NR -23.26 78.33 2140 2140 _____P________ -1 -23.26 78.33 99 4 119
1874 SI MM 21:00:00 NR -23.34 78.49 2160 2160 _____P________ -1 -23.34 78.49 99 3 116
1874 SI MM 1874-02-17 00:00:00 NR -23.40 78.64 2171 2171 _____P________ -1 -23.40 78.64 99 3 114
1874 SI MM 03:00:00 NR -23.45 78.77 2193 2193 _____P________ -1 -23.45 78.77 99 3 112
1874 SI MM 06:00:00 NR -23.50 78.90 reunion 2203 _____O________ -1 -23.50 78.90 99 9.90 3 112